Time;durP1;ratioP1;P1;durP2;ratioP2;P2;SDS_P1;SDS_P2;PMS_P1;PMS_P2;Temp;Humidity;BMP_temperature;BMP_pressure;BME280_temperature;BME280_humidity;BME280_pressure;Samples;Min_cycle;Max_cycle;Signal;HPM_P1;HPM_P2
2022/07/23 00:00:39;;;;;;;;;;;;;;;18.58;64.67;101312.41;5008791;28;20329;-77
2022/07/23 00:03:04;;;;;;;;;;;;;;;18.59;65.14;101317.63;5010581;28;19992;-77
2022/07/23 00:05:30;;;;;;;;;;;;;;;18.61;64.58;101305.22;5012753;28;20389;-77
2022/07/23 00:07:55;;;;;;;;;;;;;;;18.58;64.66;101294.84;4989986;28;20012;-78
2022/07/23 00:10:20;;;;;;;;;;;;;;;18.54;64.64;101301.16;4991825;28;19936;-77
2022/07/23 00:12:46;;;;;;;;;;;;;;;18.54;64.46;101308.22;4993082;28;20416;-78
2022/07/23 00:15:11;;;;;;;;;;;;;;;18.56;63.39;101309.84;4995207;28;19972;-77
2022/07/23 00:17:36;;;;;;;;;;;;;;;18.54;63.43;101310.84;4993956;28;19925;-77
2022/07/23 00:20:02;;;;;;;;;;;;;;;18.57;63.03;101310.72;4995739;28;20352;-77
2022/07/23 00:22:29;;;;;;;;;;;;;;;18.52;63.33;101308.28;4998713;28;20285;-78
2022/07/23 00:24:54;;;;;;;;;;;;;;;18.49;63.50;101297.03;4992525;28;20008;-77
2022/07/23 00:27:19;;;;;;;;;;;;;;;18.50;64.17;101304.88;4992694;28;19917;-77
2022/07/23 00:29:44;;;;;;;;;;;;;;;18.46;63.85;101294.53;4991163;28;20008;-77
2022/07/23 00:32:10;;;;;;;;;;;;;;;18.48;63.95;101292.72;4989565;28;20012;-81
2022/07/23 00:34:35;;;;;;;;;;;;;;;18.44;63.60;101280.56;4990439;28;19929;-80
2022/07/23 00:37:00;;;;;;;;;;;;;;;18.39;63.46;101286.03;4997385;28;20020;-80
2022/07/23 00:39:26;;;;;;;;;;;;;;;18.47;63.46;101293.63;5003517;28;19936;-80
2022/07/23 00:41:51;;;;;;;;;;;;;;;18.47;63.52;101304.16;5008021;28;20336;-80
2022/07/23 00:44:19;;;;;;;;;;;;;;;18.44;63.67;101302.47;5006795;28;19921;-80
2022/07/23 00:46:48;;;;;;;;;;;;;;;18.49;63.77;101307.56;5003390;28;20012;-80
2022/07/23 00:49:14;;;;;;;;;;;;;;;18.47;63.68;101309.41;5009548;28;19965;-80
2022/07/23 00:51:39;;;;;;;;;;;;;;;18.50;63.42;101310.13;5005728;28;19967;-80
2022/07/23 00:54:05;;;;;;;;;;;;;;;18.49;63.63;101320.72;5005809;28;19965;-80
2022/07/23 00:56:30;;;;;;;;;;;;;;;18.46;63.75;101318.22;4989821;28;19917;-80
2022/07/23 00:58:56;;;;;;;;;;;;;;;18.45;63.55;101314.72;4993616;28;19965;-80
2022/07/23 01:01:21;;;;;;;;;;;;;;;18.41;64.02;101314.91;4993624;28;19926;-81
2022/07/23 01:03:47;;;;;;;;;;;;;;;18.45;63.98;101303.34;4988908;28;19959;-80
2022/07/23 01:06:12;;;;;;;;;;;;;;;18.47;63.06;101298.88;4988376;28;19976;-80
2022/07/23 01:08:38;;;;;;;;;;;;;;;18.43;63.94;101292.88;4985944;28;20003;-80
2022/07/23 01:11:04;;;;;;;;;;;;;;;18.35;63.31;101296.78;4988945;28;19921;-80
2022/07/23 01:13:29;;;;;;;;;;;;;;;18.35;63.21;101302.03;4995229;28;19929;-80
2022/07/23 01:15:57;;;;;;;;;;;;;;;18.38;63.05;101304.53;4988715;28;19961;-80
2022/07/23 01:18:22;;;;;;;;;;;;;;;18.31;63.53;101296.06;4991085;28;19921;-80
2022/07/23 01:20:47;;;;;;;;;;;;;;;18.28;63.59;101290.94;4987620;28;19929;-81
2022/07/23 01:23:13;;;;;;;;;;;;;;;18.28;63.88;101287.44;4992123;28;19984;-80
2022/07/23 01:25:47;;;;;;;;;;;;;;;18.26;64.26;101284.88;4985081;28;19960;-80
2022/07/23 01:28:12;;;;;;;;;;;;;;;18.22;63.76;101285.06;4989981;28;19934;-80
2022/07/23 01:30:37;;;;;;;;;;;;;;;18.15;64.35;101282.72;4987763;28;19944;-80
2022/07/23 01:33:02;;;;;;;;;;;;;;;18.25;64.01;101280.53;4989983;28;19964;-79
2022/07/23 01:35:28;;;;;;;;;;;;;;;18.21;64.12;101286.88;4994053;28;19922;-80
2022/07/23 01:37:53;;;;;;;;;;;;;;;18.32;63.84;101281.13;4991411;28;19922;-80
2022/07/23 01:40:18;;;;;;;;;;;;;;;18.31;64.56;101276.78;4992996;28;19925;-80
2022/07/23 01:42:44;;;;;;;;;;;;;;;18.19;64.92;101280.81;4989490;28;19988;-80
2022/07/23 01:45:09;;;;;;;;;;;;;;;18.28;64.32;101283.03;4988079;28;20021;-80
2022/07/23 01:47:35;;;;;;;;;;;;;;;18.25;64.16;101285.81;4991005;28;20404;-80
2022/07/23 01:50:00;;;;;;;;;;;;;;;18.18;65.23;101299.31;4989896;28;19985;-80
2022/07/23 01:52:25;;;;;;;;;;;;;;;18.27;64.41;101289.25;4986283;28;19926;-80
2022/07/23 01:54:51;;;;;;;;;;;;;;;18.34;64.36;101295.91;4988264;28;19991;-80
2022/07/23 01:57:16;;;;;;;;;;;;;;;18.21;65.29;101291.28;4988391;28;19949;-80
2022/07/23 01:59:42;;;;;;;;;;;;;;;18.16;65.31;101288.84;4987963;28;19921;-80
2022/07/23 02:02:07;;;;;;;;;;;;;;;18.18;64.89;101294.03;4989015;28;19926;-80
2022/07/23 02:04:36;;;;;;;;;;;;;;;18.18;65.25;101287.84;4990535;28;19929;-80
2022/07/23 02:07:01;;;;;;;;;;;;;;;18.15;65.51;101281.88;4988571;28;19922;-80
2022/07/23 02:09:27;;;;;;;;;;;;;;;18.16;64.87;101283.56;4988353;28;19926;-80
2022/07/23 02:11:52;;;;;;;;;;;;;;;18.22;64.97;101282.44;4992353;28;20009;-80
2022/07/23 02:14:17;;;;;;;;;;;;;;;18.14;64.68;101286.28;4989271;28;19922;-81
2022/07/23 02:16:43;;;;;;;;;;;;;;;18.20;64.86;101289.56;4988320;28;19921;-80
2022/07/23 02:19:08;;;;;;;;;;;;;;;18.16;64.90;101287.06;4991817;28;20286;-80
2022/07/23 02:21:33;;;;;;;;;;;;;;;18.11;65.31;101288.19;4988172;28;19928;-80
2022/07/23 02:23:59;;;;;;;;;;;;;;;18.18;64.45;101272.06;4989041;28;19922;-80
2022/07/23 02:26:24;;;;;;;;;;;;;;;18.20;64.76;101274.66;4987892;28;19926;-80
2022/07/23 02:28:49;;;;;;;;;;;;;;;18.16;64.80;101265.16;4988769;28;19928;-80
2022/07/23 02:31:15;;;;;;;;;;;;;;;18.18;63.93;101261.53;4987876;28;19925;-80
2022/07/23 02:33:40;;;;;;;;;;;;;;;18.13;64.44;101271.44;4989899;28;20339;-80
2022/07/23 02:36:06;;;;;;;;;;;;;;;18.11;64.40;101270.66;4997136;28;19925;-80
2022/07/23 02:38:31;;;;;;;;;;;;;;;18.09;64.59;101267.22;4992441;28;19951;-80
2022/07/23 02:40:56;;;;;;;;;;;;;;;18.12;64.84;101268.88;4988762;28;19984;-80
2022/07/23 02:43:22;;;;;;;;;;;;;;;18.11;64.34;101269.78;4993151;28;19921;-80
2022/07/23 02:45:47;;;;;;;;;;;;;;;18.06;64.67;101267.38;4988210;28;19926;-80
2022/07/23 02:48:12;;;;;;;;;;;;;;;18.08;65.32;101264.66;4990573;28;19932;-80
2022/07/23 02:50:38;;;;;;;;;;;;;;;18.07;65.18;101276.09;4991962;28;20282;-80
2022/07/23 02:53:03;;;;;;;;;;;;;;;18.02;65.01;101263.16;4983261;28;19922;-80
2022/07/23 02:55:29;;;;;;;;;;;;;;;18.09;64.68;101264.59;4998417;28;20020;-80
2022/07/23 02:57:54;;;;;;;;;;;;;;;18.07;65.83;101273.47;4996341;28;19926;-80
2022/07/23 03:00:19;;;;;;;;;;;;;;;18.03;65.54;101262.25;4984236;28;19925;-80
2022/07/23 03:02:44;;;;;;;;;;;;;;;17.96;66.26;101260.81;5004663;28;19972;-80
2022/07/23 03:05:10;;;;;;;;;;;;;;;17.95;65.93;101264.34;5002742;28;19925;-80
2022/07/23 03:07:35;;;;;;;;;;;;;;;18.02;65.42;101260.53;5006257;28;19929;-80
2022/07/23 03:10:00;;;;;;;;;;;;;;;18.02;65.71;101264.94;4994905;28;19928;-80
2022/07/23 03:12:26;;;;;;;;;;;;;;;18.06;64.73;101272.63;4984540;28;19961;-79
2022/07/23 03:14:51;;;;;;;;;;;;;;;18.04;65.08;101274.47;4985548;28;20444;-80
2022/07/23 03:17:16;;;;;;;;;;;;;;;18.03;64.77;101270.13;4990182;28;19922;-80
2022/07/23 03:19:42;;;;;;;;;;;;;;;18.04;64.85;101269.19;4999085;28;19925;-80
2022/07/23 03:22:07;;;;;;;;;;;;;;;18.04;64.78;101270.97;5005433;28;19925;-80
2022/07/23 03:27:16;;;;;;;;;;;;;;;18.01;65.73;101279.84;5006841;28;19979;-80
2022/07/23 03:29:41;;;;;;;;;;;;;;;18.03;66.38;101285.06;5009531;28;19922;-80
2022/07/23 03:32:07;;;;;;;;;;;;;;;18.03;67.01;101278.03;5005675;28;19922;-80
2022/07/23 03:34:32;;;;;;;;;;;;;;;18.04;67.13;101269.19;5008504;28;21742;-80
2022/07/23 03:36:57;;;;;;;;;;;;;;;17.98;67.52;101268.59;5010476;28;19935;-80
2022/07/23 03:39:23;;;;;;;;;;;;;;;17.90;67.87;101278.59;5007558;28;19926;-80
2022/07/23 03:41:48;;;;;;;;;;;;;;;17.87;67.54;101273.47;5009739;28;19921;-80
2022/07/23 03:44:13;;;;;;;;;;;;;;;17.69;68.13;101276.88;5009412;28;19921;-78
2022/07/23 03:46:39;;;;;;;;;;;;;;;17.87;67.76;101276.97;5007267;28;19925;-79
2022/07/23 03:49:04;;;;;;;;;;;;;;;17.83;68.13;101275.38;5010676;28;19926;-78
2022/07/23 03:51:29;;;;;;;;;;;;;;;17.71;68.60;101273.28;5006322;28;19929;-78
2022/07/23 03:53:55;;;;;;;;;;;;;;;17.76;68.92;101279.22;5006230;28;19940;-78
2022/07/23 03:56:20;;;;;;;;;;;;;;;17.78;68.79;101280.00;5007196;28;19922;-78
2022/07/23 03:58:46;;;;;;;;;;;;;;;17.69;69.02;101287.41;5006692;28;19933;-77
2022/07/23 04:01:11;;;;;;;;;;;;;;;17.76;69.31;101287.09;5006194;28;20068;-77
2022/07/23 04:03:37;;;;;;;;;;;;;;;17.72;69.49;101289.91;5006868;28;20399;-78
2022/07/23 04:06:02;;;;;;;;;;;;;;;17.77;69.65;101293.22;5009721;28;19944;-79
2022/07/23 04:08:28;;;;;;;;;;;;;;;17.74;70.02;101298.59;5010681;28;19924;-80
2022/07/23 04:10:53;;;;;;;;;;;;;;;17.63;70.32;101298.16;5011746;28;19921;-80
2022/07/23 04:13:18;;;;;;;;;;;;;;;17.62;70.43;101297.31;5009532;28;19925;-80
2022/07/23 04:15:44;;;;;;;;;;;;;;;17.62;70.71;101304.38;5007170;28;19960;-80
2022/07/23 04:18:09;;;;;;;;;;;;;;;17.63;70.20;101303.41;5011932;28;19948;-80
2022/07/23 04:20:34;;;;;;;;;;;;;;;17.65;70.18;101309.50;5012845;28;19932;-80
2022/07/23 04:23:00;;;;;;;;;;;;;;;17.68;70.14;101312.00;5012327;28;19922;-80
2022/07/23 04:25:25;;;;;;;;;;;;;;;17.60;70.49;101312.28;5009831;28;20382;-80
2022/07/23 04:27:50;;;;;;;;;;;;;;;17.55;71.22;101322.09;5006130;28;19925;-80
2022/07/23 04:30:16;;;;;;;;;;;;;;;17.57;70.72;101322.88;5011252;28;19921;-80
2022/07/23 04:32:41;;;;;;;;;;;;;;;17.63;70.29;101324.44;5010576;28;20407;-80
2022/07/23 04:35:07;;;;;;;;;;;;;;;17.62;70.58;101328.84;5009354;28;19964;-80
2022/07/23 04:37:32;;;;;;;;;;;;;;;17.64;70.62;101323.53;5009499;28;19964;-80
2022/07/23 04:39:57;;;;;;;;;;;;;;;17.62;70.67;101336.72;5009889;28;19921;-80
2022/07/23 04:42:23;;;;;;;;;;;;;;;17.68;71.17;101338.25;5011244;28;19972;-80
2022/07/23 04:44:48;;;;;;;;;;;;;;;17.65;70.58;101341.84;5008479;28;19925;-80
2022/07/23 04:47:13;;;;;;;;;;;;;;;17.53;70.69;101334.47;5005046;28;19922;-80
2022/07/23 04:49:38;;;;;;;;;;;;;;;17.63;71.11;101343.69;5005044;28;19918;-80
2022/07/23 04:52:04;;;;;;;;;;;;;;;17.71;70.67;101349.47;5008400;28;19921;-80
2022/07/23 04:54:29;;;;;;;;;;;;;;;17.70;70.71;101352.19;5008677;28;20316;-80
2022/07/23 04:56:54;;;;;;;;;;;;;;;17.66;70.80;101346.19;5007359;28;19921;-80
2022/07/23 04:59:20;;;;;;;;;;;;;;;17.63;70.77;101348.94;5006512;28;19922;-80
2022/07/23 05:01:45;;;;;;;;;;;;;;;17.67;70.29;101353.16;5000180;28;19918;-80
2022/07/23 05:04:10;;;;;;;;;;;;;;;17.67;70.27;101347.06;5010926;28;19918;-80
2022/07/23 05:06:36;;;;;;;;;;;;;;;17.67;70.08;101358.44;5007883;28;19933;-80
2022/07/23 05:09:01;;;;;;;;;;;;;;;17.58;70.82;101356.13;5007516;28;19917;-80
2022/07/23 05:11:26;;;;;;;;;;;;;;;17.50;70.28;101358.22;5006763;28;19928;-80
2022/07/23 05:13:51;;;;;;;;;;;;;;;17.60;70.55;101357.81;5006335;28;19925;-80
2022/07/23 05:16:17;;;;;;;;;;;;;;;17.64;70.00;101355.91;5004713;28;19928;-80
2022/07/23 05:18:42;;;;;;;;;;;;;;;17.54;69.47;101347.53;5006324;28;19926;-81
2022/07/23 05:21:07;;;;;;;;;;;;;;;17.56;69.72;101350.94;5005367;28;19929;-79
2022/07/23 05:23:33;;;;;;;;;;;;;;;17.64;69.10;101362.94;5003275;28;19960;-80
2022/07/23 05:25:58;;;;;;;;;;;;;;;17.60;69.25;101362.22;5007751;28;19917;-80
2022/07/23 05:28:23;;;;;;;;;;;;;;;17.56;69.35;101357.97;5008209;28;20011;-80
2022/07/23 05:30:49;;;;;;;;;;;;;;;17.57;69.50;101359.66;4992439;28;19918;-80
2022/07/23 05:33:14;;;;;;;;;;;;;;;17.59;69.29;101353.47;5002777;28;20004;-80
2022/07/23 05:35:39;;;;;;;;;;;;;;;17.65;69.37;101352.34;5003533;28;19922;-80
2022/07/23 05:38:05;;;;;;;;;;;;;;;17.66;69.64;101356.69;5004785;28;19928;-80
2022/07/23 05:40:30;;;;;;;;;;;;;;;17.75;69.17;101365.97;5003837;28;19925;-80
2022/07/23 05:42:55;;;;;;;;;;;;;;;17.70;69.26;101371.44;5003480;28;19928;-80
2022/07/23 05:45:21;;;;;;;;;;;;;;;17.67;69.42;101374.19;5007131;28;19937;-77
2022/07/23 05:47:47;;;;;;;;;;;;;;;17.74;68.94;101375.63;5008445;28;20028;-78
2022/07/23 05:50:13;;;;;;;;;;;;;;;17.72;68.93;101377.47;5004026;28;19921;-78
2022/07/23 05:52:39;;;;;;;;;;;;;;;17.74;68.87;101383.50;5018986;28;19917;-77
2022/07/23 05:55:05;;;;;;;;;;;;;;;17.80;68.96;101378.00;5006840;28;19932;-77
2022/07/23 05:57:30;;;;;;;;;;;;;;;17.72;69.16;101382.72;5004971;28;19925;-77
2022/07/23 05:59:56;;;;;;;;;;;;;;;17.78;68.49;101374.59;5000468;28;19922;-77
2022/07/23 06:02:21;;;;;;;;;;;;;;;17.78;68.68;101376.38;5009286;28;19941;-77
2022/07/23 06:04:46;;;;;;;;;;;;;;;17.76;68.42;101375.59;5007871;28;19921;-77
2022/07/23 06:07:12;;;;;;;;;;;;;;;17.72;68.69;101377.47;5010271;28;19945;-77
2022/07/23 06:09:37;;;;;;;;;;;;;;;17.59;69.39;101379.72;5009750;28;19924;-80
2022/07/23 06:12:02;;;;;;;;;;;;;;;17.71;68.40;101380.19;5009616;28;20300;-79
2022/07/23 06:14:28;;;;;;;;;;;;;;;17.73;68.68;101383.59;5007755;28;20000;-80
2022/07/23 06:16:53;;;;;;;;;;;;;;;17.72;68.41;101379.25;5007519;28;19928;-77
2022/07/23 06:19:19;;;;;;;;;;;;;;;17.70;68.78;101376.69;5007172;28;19925;-77
2022/07/23 06:21:44;;;;;;;;;;;;;;;17.68;68.78;101378.50;5004288;28;19948;-77
2022/07/23 06:24:09;;;;;;;;;;;;;;;17.64;68.89;101384.81;5006880;28;20292;-77
2022/07/23 06:26:34;;;;;;;;;;;;;;;17.75;68.26;101392.25;5007739;28;19921;-80
2022/07/23 06:29:00;;;;;;;;;;;;;;;17.77;67.71;101385.19;5007624;28;20281;-80
2022/07/23 06:31:25;;;;;;;;;;;;;;;17.76;67.61;101389.59;5007432;28;20018;-79
2022/07/23 06:33:50;;;;;;;;;;;;;;;17.63;68.15;101393.59;5004039;28;19921;-79
2022/07/23 06:36:16;;;;;;;;;;;;;;;17.68;68.64;101391.66;5006372;28;20495;-79
2022/07/23 06:38:41;;;;;;;;;;;;;;;17.78;67.97;101392.13;5006292;28;19922;-77
2022/07/23 06:41:06;;;;;;;;;;;;;;;17.75;67.84;101394.88;5014978;28;19921;-77
2022/07/23 06:43:32;;;;;;;;;;;;;;;17.81;67.73;101394.63;5008730;28;19924;-80
2022/07/23 06:45:57;;;;;;;;;;;;;;;17.77;68.26;101398.31;5006074;28;19928;-80
2022/07/23 06:48:23;;;;;;;;;;;;;;;17.80;68.29;101391.16;5004990;28;19952;-80
2022/07/23 06:50:48;;;;;;;;;;;;;;;17.79;68.40;101409.63;5003599;28;19932;-80
2022/07/23 06:53:13;;;;;;;;;;;;;;;17.83;67.70;101406.78;5003145;28;20452;-81
2022/07/23 06:55:39;;;;;;;;;;;;;;;17.90;68.12;101410.88;5004056;28;19925;-80
2022/07/23 06:58:05;;;;;;;;;;;;;;;17.93;67.53;101413.41;5008671;28;19925;-77
2022/07/23 07:00:31;;;;;;;;;;;;;;;17.88;67.13;101411.88;5004741;28;20282;-77
2022/07/23 07:02:56;;;;;;;;;;;;;;;17.88;67.14;101415.38;5005091;28;20285;-77
2022/07/23 07:05:22;;;;;;;;;;;;;;;17.94;66.25;101416.88;5011319;28;19921;-76
2022/07/23 07:07:48;;;;;;;;;;;;;;;17.89;64.86;101409.16;5005624;28;19925;-76
2022/07/23 07:10:13;;;;;;;;;;;;;;;17.93;64.51;101409.91;5010736;28;19929;-77
2022/07/23 07:12:39;;;;;;;;;;;;;;;17.87;64.89;101424.16;5011023;28;19975;-78
2022/07/23 07:15:04;;;;;;;;;;;;;;;17.99;64.60;101412.28;5006819;28;19929;-79
2022/07/23 07:17:29;;;;;;;;;;;;;;;17.95;65.13;101410.69;5007885;28;19973;-80
2022/07/23 07:19:55;;;;;;;;;;;;;;;17.98;64.29;101408.78;5008395;28;20020;-81
2022/07/23 07:22:20;;;;;;;;;;;;;;;18.00;62.46;101422.75;5007382;28;19991;-80
2022/07/23 07:24:45;;;;;;;;;;;;;;;17.93;63.01;101416.03;5009396;28;19921;-80
2022/07/23 07:27:11;;;;;;;;;;;;;;;17.96;62.01;101421.16;5010948;28;19913;-78
2022/07/23 07:29:36;;;;;;;;;;;;;;;18.02;63.66;101415.66;5011715;28;20025;-78
2022/07/23 07:32:01;;;;;;;;;;;;;;;17.99;64.40;101422.78;5010727;28;20660;-78
2022/07/23 07:34:27;;;;;;;;;;;;;;;18.08;64.53;101425.03;5010244;28;20385;-78
2022/07/23 07:36:52;;;;;;;;;;;;;;;18.08;64.73;101418.03;5010208;28;19956;-79
2022/07/23 07:39:17;;;;;;;;;;;;;;;18.08;63.25;101419.78;5004319;28;19932;-79
2022/07/23 07:41:43;;;;;;;;;;;;;;;18.07;64.01;101421.56;5005573;28;19924;-79
2022/07/23 07:44:08;;;;;;;;;;;;;;;18.15;62.62;101429.16;5002331;28;19921;-79
2022/07/23 07:46:33;;;;;;;;;;;;;;;18.16;62.92;101428.19;5006216;28;19945;-79
2022/07/23 07:48:59;;;;;;;;;;;;;;;18.15;64.20;101435.22;5005208;28;19922;-79
2022/07/23 07:51:24;;;;;;;;;;;;;;;18.18;64.92;101425.53;5005402;28;20437;-79
2022/07/23 07:53:49;;;;;;;;;;;;;;;18.22;63.77;101427.94;5002166;28;19925;-80
2022/07/23 07:56:15;;;;;;;;;;;;;;;18.28;63.23;101430.31;5009906;28;19932;-81
2022/07/23 07:58:40;;;;;;;;;;;;;;;18.18;62.89;101442.16;5009112;28;19945;-80
2022/07/23 08:01:06;;;;;;;;;;;;;;;18.20;62.87;101445.56;5007168;28;20321;-80
2022/07/23 08:03:31;;;;;;;;;;;;;;;18.23;64.16;101442.81;5002068;28;19926;-80
2022/07/23 08:05:57;;;;;;;;;;;;;;;18.09;64.43;101445.19;5010907;28;19964;-80
2022/07/23 08:08:22;;;;;;;;;;;;;;;18.20;63.44;101447.34;5006720;28;19921;-80
2022/07/23 08:10:47;;;;;;;;;;;;;;;18.27;64.07;101443.56;5004819;28;20384;-80
2022/07/23 08:13:14;;;;;;;;;;;;;;;18.27;64.49;101456.69;5008067;28;19922;-80
2022/07/23 08:15:40;;;;;;;;;;;;;;;18.30;64.78;101449.53;5008258;28;19922;-80
2022/07/23 08:18:05;;;;;;;;;;;;;;;18.35;64.15;101458.09;5011167;28;19914;-81
2022/07/23 08:20:30;;;;;;;;;;;;;;;18.38;64.26;101463.22;5022554;28;19935;-80
2022/07/23 08:22:57;;;;;;;;;;;;;;;18.36;63.28;101458.94;5010037;28;20352;-81
2022/07/23 08:25:30;;;;;;;;;;;;;;;18.33;63.95;101461.69;5012044;28;20011;-80
2022/07/23 08:27:56;;;;;;;;;;;;;;;18.38;63.64;101457.97;5010464;28;19972;-81
2022/07/23 08:30:22;;;;;;;;;;;;;;;18.36;63.66;101456.31;5010250;28;20356;-80
2022/07/23 08:32:59;;;;;;;;;;;;;;;18.44;63.50;101465.59;5011523;28;19917;-80
2022/07/23 08:35:26;;;;;;;;;;;;;;;18.42;62.47;101467.41;5011129;28;19967;-80
2022/07/23 08:37:51;;;;;;;;;;;;;;;18.46;62.70;101466.41;5005176;28;20353;-80
2022/07/23 08:40:16;;;;;;;;;;;;;;;18.52;62.94;101474.03;5005834;28;20432;-80
2022/07/23 08:42:42;;;;;;;;;;;;;;;18.54;63.37;101479.25;5021929;28;20401;-81
2022/07/23 08:45:08;;;;;;;;;;;;;;;18.53;62.99;101472.25;5011648;28;19913;-81
2022/07/23 08:47:35;;;;;;;;;;;;;;;18.60;63.17;101474.56;5009386;28;19953;-80
2022/07/23 08:50:01;;;;;;;;;;;;;;;18.57;63.58;101476.50;5017751;28;19917;-81
2022/07/23 08:52:26;;;;;;;;;;;;;;;18.58;62.87;101476.41;5008411;28;20099;-80
2022/07/23 08:54:52;;;;;;;;;;;;;;;18.55;62.68;101484.44;5008030;28;19921;-80
2022/07/23 08:57:18;;;;;;;;;;;;;;;18.56;63.17;101472.13;5006195;28;19918;-81
2022/07/23 08:59:43;;;;;;;;;;;;;;;18.56;62.77;101474.75;5005218;28;19928;-80
2022/07/23 09:02:08;;;;;;;;;;;;;;;18.52;63.07;101476.66;5008634;28;20392;-80
2022/07/23 09:04:34;;;;;;;;;;;;;;;18.51;62.92;101482.00;5016994;28;20388;-81
2022/07/23 09:07:01;;;;;;;;;;;;;;;18.52;63.44;101473.16;5014640;28;20518;-81
2022/07/23 09:09:29;;;;;;;;;;;;;;;18.52;62.54;101475.81;5008600;28;20411;-81
2022/07/23 09:12:02;;;;;;;;;;;;;;;18.54;62.66;101477.44;5020721;28;19928;-80
2022/07/23 09:14:38;;;;;;;;;;;;;;;18.50;61.80;101478.53;5012766;28;20000;-80
2022/07/23 09:17:14;;;;;;;;;;;;;;;18.57;62.17;101479.94;5011882;28;19928;-80
2022/07/23 09:19:39;;;;;;;;;;;;;;;18.59;62.78;101479.91;5010476;28;19991;-81
2022/07/23 09:22:26;;;;;;;;;;;;;;;18.65;63.24;101490.16;5009447;28;19922;-80
2022/07/23 09:25:20;;;;;;;;;;;;;;;18.63;61.45;101484.09;5008559;28;19921;-80
2022/07/23 09:27:53;;;;;;;;;;;;;;;18.68;61.45;101476.88;5000219;28;19918;-80
2022/07/23 09:30:19;;;;;;;;;;;;;;;18.69;62.04;101478.56;5002979;28;19993;-80
2022/07/23 09:33:02;;;;;;;;;;;;;;;18.69;61.67;101478.56;5009723;28;19921;-81
2022/07/23 09:35:46;;;;;;;;;;;;;;;18.69;61.59;101479.41;5011111;28;19921;-80
2022/07/23 09:38:12;;;;;;;;;;;;;;;18.70;61.46;101485.53;5005122;28;19924;-80
2022/07/23 09:40:37;;;;;;;;;;;;;;;18.69;60.39;101475.94;5007343;28;19933;-80
2022/07/23 09:43:03;;;;;;;;;;;;;;;18.69;61.15;101483.81;5012991;28;19990;-80
2022/07/23 09:45:28;;;;;;;;;;;;;;;18.72;61.90;101483.69;5009130;28;20347;-80
2022/07/23 09:48:09;;;;;;;;;;;;;;;18.73;62.32;101482.78;5011060;28;20000;-80
2022/07/23 09:50:35;;;;;;;;;;;;;;;18.75;61.61;101483.56;5009655;28;19926;-80
2022/07/23 09:53:00;;;;;;;;;;;;;;;18.74;62.41;101484.50;5005958;28;20011;-80
2022/07/23 09:55:34;;;;;;;;;;;;;;;18.78;60.87;101483.44;5004085;28;19921;-81
2022/07/23 09:58:00;;;;;;;;;;;;;;;18.81;60.61;101475.41;5007865;28;19928;-80
2022/07/23 10:00:27;;;;;;;;;;;;;;;18.85;60.22;101473.50;5009296;28;20385;-81
2022/07/23 10:02:53;;;;;;;;;;;;;;;18.85;60.51;101476.97;5007825;28;20381;-80
2022/07/23 10:05:19;;;;;;;;;;;;;;;18.84;59.78;101472.63;5006788;28;19928;-81
2022/07/23 10:07:45;;;;;;;;;;;;;;;18.90;59.62;101472.34;5008267;28;19921;-80
2022/07/23 10:10:11;;;;;;;;;;;;;;;18.89;60.45;101468.03;5002226;28;19929;-80
2022/07/23 10:15:17;;;;;;;;;;;;;;;18.90;59.19;101472.34;5004649;28;19936;-79
2022/07/23 10:17:43;;;;;;;;;;;;;;;18.93;59.01;101466.97;5007762;28;20296;-80
2022/07/23 10:20:08;;;;;;;;;;;;;;;18.99;59.86;101469.31;5007501;28;20408;-80
2022/07/23 10:22:37;;;;;;;;;;;;;;;18.94;60.00;101475.72;5015053;28;19917;-80
2022/07/23 10:25:18;;;;;;;;;;;;;;;18.93;59.98;101471.38;5007558;28;20020;-80
2022/07/23 10:28:02;;;;;;;;;;;;;;;18.94;60.53;101467.81;5012080;28;19924;-80
2022/07/23 10:31:00;;;;;;;;;;;;;;;18.95;59.83;101459.88;5004735;28;19925;-80
2022/07/23 10:33:37;;;;;;;;;;;;;;;18.99;60.18;101461.41;4992184;28;20411;-80
2022/07/23 10:36:03;;;;;;;;;;;;;;;19.04;60.05;101458.59;5008320;28;20500;-80
2022/07/23 10:38:43;;;;;;;;;;;;;;;19.00;59.98;101452.59;4987238;28;20012;-80
2022/07/23 10:41:09;;;;;;;;;;;;;;;19.03;59.70;101456.88;4981188;28;19926;-80
2022/07/23 10:43:34;;;;;;;;;;;;;;;19.03;58.33;101455.09;4982439;28;20456;-80
2022/07/23 10:46:18;;;;;;;;;;;;;;;19.06;58.76;101456.75;4966324;28;19929;-80
2022/07/23 10:48:44;;;;;;;;;;;;;;;19.04;59.50;101451.56;4991565;28;19921;-80
2022/07/23 10:51:10;;;;;;;;;;;;;;;19.06;59.96;101452.34;5008419;28;19933;-80
2022/07/23 10:53:50;;;;;;;;;;;;;;;19.13;59.48;101451.09;5004720;28;20443;-80
2022/07/23 10:56:16;;;;;;;;;;;;;;;19.14;60.30;101450.19;5002074;28;19926;-80
2022/07/23 10:58:50;;;;;;;;;;;;;;;19.12;59.61;101452.06;5006749;28;19925;-80
2022/07/23 11:01:31;;;;;;;;;;;;;;;19.12;58.74;101448.56;5005147;28;19917;-80
2022/07/23 11:03:58;;;;;;;;;;;;;;;19.17;56.68;101444.78;4997180;28;19922;-80
2022/07/23 11:06:23;;;;;;;;;;;;;;;19.25;57.00;101453.19;4982567;28;19930;-80
2022/07/23 11:09:09;;;;;;;;;;;;;;;19.20;56.50;101449.06;4988292;28;19977;-80
2022/07/23 11:11:34;;;;;;;;;;;;;;;19.20;56.89;101451.69;5003423;28;19921;-80
2022/07/23 11:13:59;;;;;;;;;;;;;;;19.15;57.33;101445.78;5017274;28;19918;-80
2022/07/23 11:16:25;;;;;;;;;;;;;;;19.16;57.53;101440.44;5011767;28;20360;-81
2022/07/23 11:18:54;;;;;;;;;;;;;;;19.22;57.25;101442.78;5016584;28;19992;-80
2022/07/23 11:21:23;;;;;;;;;;;;;;;19.23;57.01;101449.78;5013198;28;19926;-80
2022/07/23 11:24:07;;;;;;;;;;;;;;;19.23;56.69;101441.00;5010729;28;19939;-80
2022/07/23 11:26:39;;;;;;;;;;;;;;;19.37;56.71;101446.56;5011661;28;20007;-80
2022/07/23 11:29:23;;;;;;;;;;;;;;;19.36;57.04;101443.97;5005608;28;19964;-80
2022/07/23 11:31:53;;;;;;;;;;;;;;;19.21;59.36;101438.47;5006973;28;19925;-80
2022/07/23 11:34:28;;;;;;;;;;;;;;;19.18;58.82;101441.25;4995647;28;19917;-80
2022/07/23 11:36:53;;;;;;;;;;;;;;;19.30;57.95;101433.72;5006960;28;20039;-80
2022/07/23 11:39:20;;;;;;;;;;;;;;;19.34;56.73;101432.66;5008358;28;19922;-80
2022/07/23 11:41:45;;;;;;;;;;;;;;;19.50;55.78;101439.75;4999668;28;19926;-80
2022/07/23 11:44:30;;;;;;;;;;;;;;;19.32;59.49;101437.13;5005884;28;20447;-80
2022/07/23 11:47:00;;;;;;;;;;;;;;;19.21;61.57;101440.25;5004663;28;19922;-80
2022/07/23 11:49:26;;;;;;;;;;;;;;;19.20;58.73;101442.00;5007873;28;19936;-76
2022/07/23 11:52:08;;;;;;;;;;;;;;;19.44;56.13;101426.00;5007045;28;19926;-76
2022/07/23 11:54:34;;;;;;;;;;;;;;;19.54;55.90;101435.22;5006788;28;20571;-79
2022/07/23 11:57:00;;;;;;;;;;;;;;;19.61;56.26;101434.00;5009276;28;20381;-79
2022/07/23 11:59:30;;;;;;;;;;;;;;;19.58;55.68;101439.41;5009496;28;20002;-76
2022/07/23 12:02:05;;;;;;;;;;;;;;;19.58;55.41;101432.34;5007108;28;20019;-77
2022/07/23 12:04:44;;;;;;;;;;;;;;;19.44;56.70;101437.41;5010259;28;20466;-76
2022/07/23 12:07:28;;;;;;;;;;;;;;;19.51;56.00;101432.72;5010120;28;20003;-77
2022/07/23 12:09:54;;;;;;;;;;;;;;;19.72;54.13;101435.19;5014874;28;19968;-76
2022/07/23 12:12:19;;;;;;;;;;;;;;;19.66;54.52;101432.84;5008004;28;19983;-77
2022/07/23 12:14:55;;;;;;;;;;;;;;;19.63;54.17;101430.34;5007631;28;19920;-76
2022/07/23 12:17:21;;;;;;;;;;;;;;;19.57;54.60;101430.66;5002815;28;19925;-76
2022/07/23 12:19:47;;;;;;;;;;;;;;;19.57;55.89;101427.16;5005489;28;19973;-79
2022/07/23 12:22:14;;;;;;;;;;;;;;;19.56;55.47;101425.44;5006466;28;19994;-79
2022/07/23 12:24:56;;;;;;;;;;;;;;;19.79;52.85;101417.28;5006352;28;20292;-79
2022/07/23 12:27:22;;;;;;;;;;;;;;;19.63;52.76;101421.59;5007854;28;21002;-79
2022/07/23 12:29:47;;;;;;;;;;;;;;;19.80;53.75;101422.47;5004556;28;20381;-79
2022/07/23 12:32:18;;;;;;;;;;;;;;;19.87;51.58;101411.63;5008002;28;19922;-79
2022/07/23 12:34:44;;;;;;;;;;;;;;;19.74;52.56;101414.88;5009719;28;19921;-80
2022/07/23 12:37:48;;;;;;;;;;;;;;;19.81;51.90;101418.06;5009278;28;20305;-79
2022/07/23 12:40:21;;;;;;;;;;;;;;;19.79;51.48;101415.50;4961537;28;19933;-79